Time;durP1;ratioP1;P1;durP2;ratioP2;P2;SDS_P1;SDS_P2;PMS_P1;PMS_P2;Temp;Humidity;BMP_temperature;BMP_pressure;BME280_temperature;BME280_humidity;BME280_pressure;Samples;Min_cycle;Max_cycle;Signal;HPM_P1;HPM_P2
2022/07/20 00:00:07;;;;;;;8.57;7.77;;;24.20;49.40;;;;;;5049463;28;20185;-70
2022/07/20 00:02:32;;;;;;;7.80;7.13;;;24.10;49.60;;;;;;5039454;28;20573;-69
2022/07/20 00:04:58;;;;;;;8.00;7.20;;;24.00;49.80;;;;;;5042606;28;20463;-69
2022/07/20 00:07:24;;;;;;;7.97;7.37;;;24.00;49.90;;;;;;5058650;28;20174;-69
2022/07/20 00:12:34;;;;;;;8.40;7.40;;;24.00;49.30;;;;;;5048539;28;20234;-69
2022/07/20 00:14:59;;;;;;;9.90;7.23;;;24.00;50.10;;;;;;5044278;28;20535;-70
2022/07/20 00:17:25;;;;;;;8.93;8.10;;;23.90;49.90;;;;;;5043804;28;20181;-69
2022/07/20 00:19:50;;;;;;;8.77;7.30;;;24.00;50.00;;;;;;5045131;28;20192;-72
2022/07/20 00:22:16;;;;;;;11.90;7.80;;;23.90;50.70;;;;;;5047127;28;20609;-72
2022/07/20 00:24:42;;;;;;;11.07;7.67;;;23.80;50.40;;;;;;5043103;28;20189;-69
2022/07/20 00:27:07;;;;;;;8.23;7.37;;;23.70;51.00;;;;;;5049430;28;20265;-69
2022/07/20 00:29:33;;;;;;;8.60;7.70;;;23.60;51.10;;;;;;5043638;28;21029;-70
2022/07/20 00:31:58;;;;;;;11.00;9.90;;;23.60;51.60;;;;;;5046798;28;20180;-70
2022/07/20 00:34:24;;;;;;;8.87;8.03;;;23.50;51.60;;;;;;5040205;28;20177;-69
2022/07/20 00:36:49;;;;;;;10.33;6.87;;;23.50;51.40;;;;;;5051353;28;20211;-69
2022/07/20 00:39:15;;;;;;;8.53;6.80;;;23.30;51.80;;;;;;5053946;28;20182;-70
2022/07/20 00:41:41;;;;;;;11.07;8.57;;;23.30;52.00;;;;;;5043215;28;20181;-69
2022/07/20 00:44:08;;;;;;;11.10;7.77;;;23.30;52.20;;;;;;5048030;28;20248;-69
2022/07/20 00:46:44;;;;;;;8.13;7.43;;;23.20;51.90;;;;;;5053336;28;20197;-69
2022/07/20 00:49:11;;;;;;;8.63;7.20;;;23.20;52.20;;;;;;5049157;28;20485;-70
2022/07/20 00:51:39;;;;;;;7.37;6.77;;;23.20;52.00;;;;;;5052042;28;20477;-69
2022/07/20 00:54:06;;;;;;;9.07;7.30;;;23.20;52.30;;;;;;5049986;28;20950;-69
2022/07/20 00:56:33;;;;;;;9.10;8.30;;;23.30;52.30;;;;;;5051439;28;20467;-69
2022/07/20 00:58:58;;;;;;;8.20;7.60;;;23.30;52.30;;;;;;5045412;28;20447;-70
2022/07/20 01:01:24;;;;;;;8.37;7.57;;;23.20;53.00;;;;;;5053258;28;20443;-70
2022/07/20 01:03:49;;;;;;;7.37;6.67;;;23.20;52.60;;;;;;5043049;28;20558;-70
2022/07/20 01:06:15;;;;;;;9.07;7.93;;;23.10;52.60;;;;;;5050759;28;20220;-69
2022/07/20 01:08:41;;;;;;;8.33;7.53;;;23.10;52.80;;;;;;5047513;28;20209;-69
2022/07/20 01:11:06;;;;;;;8.30;7.57;;;22.90;53.80;;;;;;5040620;28;20189;-70
2022/07/20 01:13:33;;;;;;;8.90;8.00;;;22.90;53.60;;;;;;5051687;28;20175;-70
2022/07/20 01:15:59;;;;;;;10.70;8.40;;;22.90;53.70;;;;;;5049599;28;20194;-70
2022/07/20 01:18:24;;;;;;;8.90;8.07;;;22.90;54.10;;;;;;5047212;28;20531;-70
2022/07/20 01:20:50;;;;;;;7.63;7.03;;;22.80;54.50;;;;;;5044720;28;20184;-69
2022/07/20 01:23:17;;;;;;;9.97;8.13;;;22.80;54.70;;;;;;5049411;28;20185;-69
2022/07/20 01:25:43;;;;;;;9.07;8.30;;;22.80;54.50;;;;;;5044305;28;20591;-70
2022/07/20 01:28:12;;;;;;;8.53;7.83;;;22.80;54.60;;;;;;5044942;28;20487;-70
2022/07/20 01:30:39;;;;;;;11.90;9.40;;;22.70;54.80;;;;;;5050201;28;20959;-69
2022/07/20 01:33:04;;;;;;;8.80;7.80;;;22.70;54.60;;;;;;5046681;28;20465;-69
2022/07/20 01:35:30;;;;;;;8.37;7.67;;;22.60;55.50;;;;;;5051024;28;20871;-69
2022/07/20 01:37:56;;;;;;;9.13;8.00;;;22.40;56.30;;;;;;5049966;28;20201;-69
2022/07/20 01:40:22;;;;;;;8.13;7.40;;;22.40;56.10;;;;;;5049755;28;20181;-70
2022/07/20 01:42:47;;;;;;;9.43;8.57;;;22.40;56.40;;;;;;5048948;28;20208;-69
2022/07/20 01:45:13;;;;;;;9.90;8.30;;;22.40;56.90;;;;;;5048965;28;20475;-69
2022/07/20 01:47:39;;;;;;;12.00;8.80;;;22.30;56.90;;;;;;5036988;28;20186;-69
2022/07/20 01:50:05;;;;;;;9.20;8.50;;;22.30;56.70;;;;;;5047885;28;20267;-70
2022/07/20 01:52:30;;;;;;;9.30;7.80;;;22.20;56.90;;;;;;5040888;28;20177;-69
2022/07/20 01:54:56;;;;;;;8.77;7.87;;;22.20;57.70;;;;;;5044869;28;20464;-69
2022/07/20 01:57:21;;;;;;;8.60;7.87;;;22.10;57.80;;;;;;5050622;28;20714;-70
2022/07/20 01:59:47;;;;;;;8.40;7.60;;;22.00;58.70;;;;;;5048939;28;20529;-69
2022/07/20 02:02:12;;;;;;;9.40;8.17;;;22.00;59.70;;;;;;5049279;28;20192;-69
2022/07/20 02:04:38;;;;;;;12.73;8.73;;;22.00;59.90;;;;;;5050948;28;20186;-69
2022/07/20 02:07:04;;;;;;;9.00;8.10;;;21.90;60.60;;;;;;5051173;28;20639;-70
2022/07/20 02:09:29;;;;;;;9.30;8.40;;;21.90;61.30;;;;;;5046477;28;20212;-69
2022/07/20 02:11:55;;;;;;;8.50;7.70;;;21.90;62.50;;;;;;5047962;28;20236;-70
2022/07/20 02:14:20;;;;;;;8.93;8.13;;;21.90;62.80;;;;;;5047725;28;20401;-69
2022/07/20 02:16:46;;;;;;;8.47;7.67;;;21.90;63.80;;;;;;5047923;28;20667;-69
2022/07/20 02:19:11;;;;;;;9.20;7.97;;;21.90;63.70;;;;;;5040421;28;20212;-70
2022/07/20 02:21:37;;;;;;;9.20;8.40;;;21.90;63.50;;;;;;5048129;28;20182;-69
2022/07/20 02:24:03;;;;;;;10.90;9.13;;;21.80;65.20;;;;;;5049329;28;20182;-69
2022/07/20 02:26:30;;;;;;;8.47;7.67;;;21.80;65.70;;;;;;5046256;28;20263;-69
2022/07/20 02:28:56;;;;;;;9.13;7.97;;;21.80;66.00;;;;;;5047568;28;20558;-69
2022/07/20 02:31:23;;;;;;;8.27;7.63;;;21.90;67.30;;;;;;5051567;28;20515;-69
2022/07/20 02:33:49;;;;;;;8.27;7.57;;;22.00;68.10;;;;;;5046856;28;20517;-69
2022/07/20 02:36:14;;;;;;;9.60;8.53;;;22.00;67.30;;;;;;5043176;28;20453;-69
2022/07/20 02:38:40;;;;;;;9.57;8.77;;;22.00;66.80;;;;;;5041878;28;20439;-69
2022/07/20 02:41:06;;;;;;;9.73;8.80;;;22.00;67.10;;;;;;5050887;28;20190;-70
2022/07/20 02:43:32;;;;;;;9.50;8.70;;;22.00;67.70;;;;;;5050218;28;20240;-69
2022/07/20 02:45:57;;;;;;;9.13;8.30;;;22.00;67.80;;;;;;5048687;28;20444;-69
2022/07/20 02:48:23;;;;;;;9.03;8.23;;;22.00;69.20;;;;;;5047320;28;20221;-69
2022/07/20 02:50:49;;;;;;;9.33;8.33;;;22.00;69.20;;;;;;5045812;28;20178;-69
2022/07/20 02:53:14;;;;;;;9.43;8.37;;;21.90;70.50;;;;;;5046272;28;20223;-69
2022/07/20 02:55:42;;;;;;;8.80;7.90;;;21.80;73.00;;;;;;5043833;28;20886;-69
2022/07/20 02:58:09;;;;;;;10.20;9.20;;;21.70;72.80;;;;;;5039897;28;20166;-70
2022/07/20 03:00:35;;;;;;;8.87;8.00;;;21.60;74.40;;;;;;5040659;28;20436;-69
2022/07/20 03:03:01;;;;;;;8.63;7.83;;;21.50;73.40;;;;;;5048432;28;20458;-69
2022/07/20 03:05:27;;;;;;;16.80;9.23;;;21.50;74.80;;;;;;5044588;28;20971;-69
2022/07/20 03:07:53;;;;;;;8.13;7.50;;;21.40;76.50;;;;;;5048473;28;20181;-69
2022/07/20 03:10:19;;;;;;;8.67;7.97;;;21.30;78.70;;;;;;5044161;28;20252;-69
2022/07/20 03:12:44;;;;;;;9.50;8.30;;;21.20;80.90;;;;;;5046583;28;20493;-69
2022/07/20 03:15:11;;;;;;;9.43;8.30;;;21.10;82.10;;;;;;5048080;28;20205;-69
2022/07/20 03:17:52;;;;;;;9.10;8.30;;;21.10;83.10;;;;;;5043830;28;20227;-69
2022/07/20 03:20:26;;;;;;;9.20;8.40;;;21.00;84.10;;;;;;5050233;28;20869;-70
2022/07/20 03:22:52;;;;;;;8.83;7.70;;;21.00;84.30;;;;;;5041552;28;20449;-69
2022/07/20 03:25:18;;;;;;;8.17;7.47;;;21.00;84.80;;;;;;5060677;23;21088;-67
2022/07/20 03:27:44;;;;;;;8.33;7.63;;;21.00;86.00;;;;;;5003543;28;20438;-67
2022/07/20 03:30:10;;;;;;;9.57;8.57;;;20.90;86.70;;;;;;5007469;28;20559;-66
2022/07/20 03:32:36;;;;;;;8.83;7.97;;;20.80;89.50;;;;;;5010027;28;20203;-67
2022/07/20 03:35:02;;;;;;;8.37;7.47;;;20.80;90.50;;;;;;5007979;28;20480;-66
2022/07/20 03:37:28;;;;;;;8.97;8.07;;;20.80;90.70;;;;;;4990383;28;20249;-67
2022/07/20 03:39:53;;;;;;;8.80;7.90;;;20.90;90.50;;;;;;4994188;28;20456;-67
2022/07/20 03:42:19;;;;;;;9.67;7.50;;;20.80;91.60;;;;;;4988344;28;20898;-67
2022/07/20 03:44:44;;;;;;;8.97;8.00;;;20.90;91.80;;;;;;4985978;28;20181;-66
2022/07/20 03:47:10;;;;;;;8.10;7.40;;;20.90;92.30;;;;;;4996116;28;20210;-67
2022/07/20 03:49:36;;;;;;;9.50;7.50;;;21.00;91.60;;;;;;4992982;28;20543;-67
2022/07/20 03:52:01;;;;;;;9.00;8.10;;;21.00;91.70;;;;;;4989737;28;20203;-66
2022/07/20 03:54:27;;;;;;;7.47;6.87;;;21.00;91.40;;;;;;4994221;28;20185;-67
2022/07/20 03:56:53;;;;;;;8.30;7.33;;;21.10;91.60;;;;;;4992072;28;20254;-67
2022/07/20 03:59:18;;;;;;;8.70;7.80;;;21.00;93.00;;;;;;4988789;28;20216;-67
2022/07/20 04:01:44;;;;;;;8.30;7.47;;;20.90;93.00;;;;;;4990786;28;20644;-66
2022/07/20 04:04:09;;;;;;;8.63;7.90;;;20.80;93.80;;;;;;4980177;28;20247;-67
2022/07/20 04:06:35;;;;;;;9.10;8.30;;;20.90;94.90;;;;;;4978873;28;20697;-67
2022/07/20 04:09:01;;;;;;;8.47;7.60;;;20.90;95.10;;;;;;4978870;28;20215;-66
2022/07/20 04:11:26;;;;;;;8.67;7.30;;;20.90;95.70;;;;;;4976586;28;20175;-67
2022/07/20 04:13:52;;;;;;;8.70;7.87;;;20.90;95.50;;;;;;4978684;28;20439;-67
2022/07/20 04:16:18;;;;;;;8.77;8.03;;;20.90;95.80;;;;;;4981651;28;20632;-66
2022/07/20 04:18:44;;;;;;;13.07;8.13;;;21.10;96.30;;;;;;4976919;28;20534;-66
2022/07/20 04:21:09;;;;;;;9.00;8.10;;;21.00;96.50;;;;;;4977535;28;20187;-66
2022/07/20 04:23:35;;;;;;;10.03;9.03;;;21.20;96.40;;;;;;4983389;28;20181;-66
2022/07/20 04:26:00;;;;;;;8.73;7.83;;;21.40;95.80;;;;;;4977243;28;20262;-66
2022/07/20 04:28:26;;;;;;;8.07;7.37;;;21.50;96.00;;;;;;4974044;28;20179;-66
2022/07/20 04:30:51;;;;;;;10.30;9.40;;;21.60;96.10;;;;;;4984446;28;20248;-66
2022/07/20 04:33:18;;;;;;;10.60;9.50;;;21.60;96.10;;;;;;4981007;28;20207;-67
2022/07/20 04:35:44;;;;;;;10.20;7.53;;;21.70;96.00;;;;;;4981335;28;20188;-67
2022/07/20 04:38:13;;;;;;;8.93;7.77;;;21.70;96.40;;;;;;4981564;28;20948;-66
2022/07/20 04:40:39;;;;;;;9.30;8.10;;;21.80;96.60;;;;;;4979883;28;20431;-67
2022/07/20 04:43:05;;;;;;;10.37;9.37;;;21.90;96.70;;;;;;4975799;28;20442;-67
2022/07/20 04:45:31;;;;;;;10.00;8.53;;;22.00;97.40;;;;;;4977284;28;20979;-66
2022/07/20 04:47:56;;;;;;;8.07;7.47;;;22.10;97.30;;;;;;4972328;28;20165;-66
2022/07/20 04:50:22;;;;;;;9.97;7.87;;;22.20;97.00;;;;;;4976810;28;20258;-67
2022/07/20 04:52:47;;;;;;;9.83;7.87;;;22.30;96.50;;;;;;4979089;28;20645;-67
2022/07/20 04:55:13;;;;;;;9.63;8.47;;;22.50;96.30;;;;;;4980409;28;20278;-66
2022/07/20 04:57:38;;;;;;;8.30;7.47;;;22.60;96.40;;;;;;4980727;28;20180;-66
2022/07/20 05:00:06;;;;;;;11.00;8.80;;;22.70;96.30;;;;;;4979412;28;20211;-65
2022/07/20 05:02:31;;;;;;;10.97;8.57;;;22.80;96.00;;;;;;4983993;28;20205;-66
2022/07/20 05:04:57;;;;;;;9.53;8.63;;;22.90;95.70;;;;;;4990653;28;20514;-67
2022/07/20 05:07:23;;;;;;;9.47;8.60;;;23.00;95.60;;;;;;4992725;28;20194;-67
2022/07/20 05:09:48;;;;;;;10.93;9.20;;;23.10;95.40;;;;;;4991427;28;20700;-66
2022/07/20 05:12:14;;;;;;;8.53;7.90;;;23.20;95.40;;;;;;4996134;28;20552;-66
2022/07/20 05:14:39;;;;;;;8.93;8.13;;;23.30;95.80;;;;;;4987196;28;20210;-66
2022/07/20 05:17:05;;;;;;;9.77;8.67;;;23.40;95.90;;;;;;4992978;28;20290;-66
2022/07/20 05:19:30;;;;;;;10.63;8.30;;;23.50;95.20;;;;;;4995092;28;20187;-66
2022/07/20 05:21:57;;;;;;;9.27;7.53;;;23.70;94.60;;;;;;4982740;28;20187;-66
2022/07/20 05:24:22;;;;;;;11.37;8.77;;;23.80;92.90;;;;;;4970918;28;20685;-65
2022/07/20 05:26:48;;;;;;;9.03;8.13;;;24.00;92.90;;;;;;4950951;28;20492;-67
2022/07/20 05:29:13;;;;;;;11.47;8.17;;;24.10;93.10;;;;;;4979665;28;20673;-67
2022/07/20 05:31:39;;;;;;;9.30;8.50;;;24.10;88.50;;;;;;4974806;28;20176;-68
2022/07/20 05:34:04;;;;;;;9.07;8.00;;;24.00;89.50;;;;;;4972026;28;20176;-67
2022/07/20 05:36:30;;;;;;;10.73;8.40;;;24.00;86.60;;;;;;4980331;28;20214;-67
2022/07/20 05:38:56;;;;;;;12.13;7.60;;;24.10;85.70;;;;;;4967874;28;20238;-68
2022/07/20 05:41:21;;;;;;;8.77;8.00;;;24.20;84.30;;;;;;4979583;28;20701;-68
2022/07/20 05:43:46;;;;;;;11.30;7.30;;;24.20;84.30;;;;;;4986733;28;20654;-67
2022/07/20 05:46:12;;;;;;;10.17;8.83;;;24.40;85.40;;;;;;4997397;28;20211;-66
2022/07/20 05:48:38;;;;;;;13.50;8.90;;;24.60;83.60;;;;;;4980494;28;20342;-66
2022/07/20 05:51:03;;;;;;;13.23;8.33;;;24.70;81.00;;;;;;4985087;28;20640;-67
2022/07/20 05:53:29;;;;;;;12.90;9.63;;;24.80;79.10;;;;;;4972588;28;20199;-66
2022/07/20 05:55:54;;;;;;;10.27;8.93;;;24.70;78.60;;;;;;4973102;28;20200;-67
2022/07/20 05:58:20;;;;;;;11.93;9.40;;;24.50;79.30;;;;;;4974517;28;20180;-67
2022/07/20 06:00:46;;;;;;;11.97;8.40;;;24.30;80.00;;;;;;4975108;28;20180;-68
2022/07/20 06:03:11;;;;;;;9.43;8.63;;;24.30;79.80;;;;;;4988897;28;20551;-67
2022/07/20 06:05:37;;;;;;;10.83;8.97;;;24.50;79.10;;;;;;4973916;28;20633;-67
2022/07/20 06:08:03;;;;;;;9.10;8.20;;;24.60;78.70;;;;;;4974041;28;20622;-67
2022/07/20 06:10:30;;;;;;;9.60;8.60;;;24.70;77.50;;;;;;4973392;28;20211;-67
2022/07/20 06:12:57;;;;;;;10.17;8.10;;;24.80;76.70;;;;;;4974771;28;20424;-67
2022/07/20 06:15:25;;;;;;;7.93;7.33;;;24.90;76.70;;;;;;4971247;28;20498;-67
2022/07/20 06:17:51;;;;;;;12.73;8.80;;;25.10;76.00;;;;;;4974952;28;20507;-67
2022/07/20 06:20:17;;;;;;;9.63;8.67;;;25.30;75.50;;;;;;4973104;28;20827;-67
2022/07/20 06:22:43;;;;;;;9.70;8.70;;;25.60;73.70;;;;;;4973826;28;20466;-67
2022/07/20 06:25:11;;;;;;;11.03;9.83;;;25.70;74.10;;;;;;4970593;28;20176;-67
2022/07/20 06:27:37;;;;;;;10.17;7.67;;;26.00;72.10;;;;;;4973797;28;20489;-67
2022/07/20 06:30:04;;;;;;;9.83;8.83;;;26.30;72.60;;;;;;4973636;28;20498;-67
2022/07/20 06:32:30;;;;;;;8.60;8.00;;;26.60;71.30;;;;;;4981908;28;20489;-67
2022/07/20 06:34:56;;;;;;;9.70;8.83;;;26.70;69.80;;;;;;4983429;28;20788;-67
2022/07/20 06:37:21;;;;;;;10.77;9.80;;;26.50;69.20;;;;;;4996429;28;20242;-68
2022/07/20 06:39:47;;;;;;;9.43;8.57;;;26.50;69.40;;;;;;4973591;28;20222;-68
2022/07/20 06:42:14;;;;;;;9.20;8.23;;;26.70;68.90;;;;;;4973526;28;20187;-68
2022/07/20 06:44:39;;;;;;;11.43;10.17;;;27.00;68.40;;;;;;4969815;28;20261;-68
2022/07/20 06:47:05;;;;;;;10.07;9.00;;;27.20;67.30;;;;;;4974016;28;20514;-68
2022/07/20 06:49:31;;;;;;;14.20;11.90;;;27.30;66.90;;;;;;4979359;28;20242;-67
2022/07/20 06:51:56;;;;;;;14.00;10.00;;;27.40;67.70;;;;;;4992876;28;20179;-68
2022/07/20 06:54:23;;;;;;;9.43;8.60;;;27.40;66.30;;;;;;4987847;28;20557;-67
2022/07/20 06:56:48;;;;;;;9.43;8.70;;;27.40;65.80;;;;;;4971961;28;20192;-68
2022/07/20 06:59:14;;;;;;;10.07;9.03;;;27.50;65.90;;;;;;4971805;28;20427;-68
2022/07/20 07:01:39;;;;;;;10.27;9.30;;;27.90;65.20;;;;;;4971898;28;20184;-68
2022/07/20 07:04:05;;;;;;;10.33;9.33;;;28.20;63.90;;;;;;4975975;28;20195;-68
2022/07/20 07:06:32;;;;;;;9.63;8.83;;;28.40;63.20;;;;;;4970481;28;20200;-65
2022/07/20 07:08:58;;;;;;;11.53;8.87;;;28.50;62.40;;;;;;4974874;28;20211;-65
2022/07/20 07:11:24;;;;;;;10.67;9.67;;;28.80;62.20;;;;;;4970065;28;20431;-66
2022/07/20 07:13:50;;;;;;;11.70;9.40;;;29.30;60.70;;;;;;4966191;28;20450;-66
2022/07/20 07:16:15;;;;;;;9.37;8.43;;;29.70;60.20;;;;;;4971722;28;20753;-66
2022/07/20 07:18:41;;;;;;;10.03;9.03;;;30.10;58.60;;;;;;4969094;28;20176;-66
2022/07/20 07:21:06;;;;;;;10.37;9.37;;;30.30;58.40;;;;;;4969226;28;20638;-66
2022/07/20 07:23:32;;;;;;;10.17;9.23;;;30.60;57.90;;;;;;4967998;28;20176;-65
2022/07/20 07:25:57;;;;;;;16.30;10.07;;;30.80;57.00;;;;;;4981706;28;20603;-65
2022/07/20 07:28:23;;;;;;;11.47;9.60;;;31.00;55.90;;;;;;4981064;28;20182;-65
2022/07/20 07:30:51;;;;;;;10.87;9.97;;;31.00;55.50;;;;;;4989557;28;20174;-65
2022/07/20 07:33:19;;;;;;;10.23;8.90;;;31.30;55.30;;;;;;4988102;28;20237;-65
2022/07/20 07:35:45;;;;;;;10.60;9.70;;;31.40;54.30;;;;;;4966473;28;20489;-66
2022/07/20 07:38:11;;;;;;;11.33;9.77;;;31.60;53.90;;;;;;4975347;28;20795;-65
2022/07/20 07:40:36;;;;;;;13.70;9.70;;;31.60;53.50;;;;;;4983952;28;20518;-66
2022/07/20 07:43:02;;;;;;;9.90;8.70;;;31.80;52.70;;;;;;4971965;28;20179;-66
2022/07/20 07:45:27;;;;;;;9.77;8.73;;;32.10;51.90;;;;;;4974464;28;20286;-66
2022/07/20 07:47:53;;;;;;;9.70;8.90;;;32.10;51.70;;;;;;4991890;28;20266;-66
2022/07/20 07:50:19;;;;;;;9.50;8.67;;;31.80;52.10;;;;;;4991608;28;20199;-66
2022/07/20 07:52:44;;;;;;;13.37;9.63;;;31.60;52.10;;;;;;4988843;28;20254;-65
2022/07/20 07:55:10;;;;;;;9.93;9.03;;;31.50;51.70;;;;;;4981969;28;20653;-65
2022/07/20 07:57:36;;;;;;;10.93;8.10;;;31.60;51.70;;;;;;4975536;28;20184;-65
2022/07/20 08:00:04;;;;;;;9.70;8.80;;;32.00;50.70;;;;;;4979266;28;20431;-65
2022/07/20 08:02:30;;;;;;;12.33;8.53;;;31.90;50.10;;;;;;4985908;28;20180;-65
2022/07/20 08:04:55;;;;;;;9.83;8.83;;;32.20;49.90;;;;;;4971677;28;20450;-65
2022/07/20 08:07:21;;;;;;;10.07;9.17;;;32.80;49.30;;;;;;4984225;28;20185;-65
2022/07/20 08:09:46;;;;;;;9.50;8.60;;;33.20;47.90;;;;;;4987311;28;20207;-65
2022/07/20 08:12:12;;;;;;;11.40;9.40;;;33.30;47.40;;;;;;4968819;28;20227;-65
2022/07/20 08:14:37;;;;;;;10.53;9.20;;;32.50;47.70;;;;;;4963830;28;20677;-66
2022/07/20 08:17:03;;;;;;;11.93;8.80;;;32.00;49.00;;;;;;4980292;28;20203;-66
2022/07/20 08:19:28;;;;;;;12.80;8.43;;;32.20;48.90;;;;;;4986226;28;20575;-66
2022/07/20 08:21:54;;;;;;;10.30;9.50;;;32.80;48.10;;;;;;4987915;28;20633;-66
2022/07/20 08:24:19;;;;;;;10.10;9.23;;;33.30;47.60;;;;;;4973658;28;20187;-66
2022/07/20 08:26:45;;;;;;;8.57;7.77;;;33.30;47.60;;;;;;4988905;28;20266;-66
2022/07/20 08:29:10;;;;;;;9.77;8.87;;;33.40;47.70;;;;;;4981878;28;20196;-66
2022/07/20 08:31:36;;;;;;;10.50;9.50;;;33.80;46.70;;;;;;4975759;28;20176;-66
2022/07/20 08:34:01;;;;;;;10.17;9.27;;;33.70;46.80;;;;;;4977291;28;20195;-66
2022/07/20 08:36:27;;;;;;;10.53;9.60;;;33.60;46.70;;;;;;4970146;28;20200;-65
2022/07/20 08:38:53;;;;;;;9.60;8.90;;;33.60;46.80;;;;;;4970681;28;20181;-66
2022/07/20 08:41:20;;;;;;;9.73;9.03;;;33.70;46.80;;;;;;4972286;28;20188;-66
2022/07/20 08:43:46;;;;;;;9.53;8.70;;;34.10;45.90;;;;;;4969953;28;20183;-66
2022/07/20 08:46:12;;;;;;;8.90;8.17;;;34.30;45.30;;;;;;4989529;28;20822;-66
2022/07/20 08:48:41;;;;;;;9.70;8.70;;;34.80;45.00;;;;;;4979822;28;20212;-66
2022/07/20 08:51:07;;;;;;;9.60;8.07;;;35.30;44.40;;;;;;4989300;28;20452;-66
2022/07/20 08:53:32;;;;;;;9.70;8.77;;;35.70;43.90;;;;;;4993105;28;20434;-66
2022/07/20 08:55:58;;;;;;;8.87;8.20;;;35.60;44.00;;;;;;4986715;28;20218;-68
2022/07/20 08:58:23;;;;;;;9.37;8.60;;;35.70;43.10;;;;;;4975015;28;20356;-66
2022/07/20 09:00:49;;;;;;;9.77;8.93;;;35.90;42.50;;;;;;4976217;28;20172;-66
2022/07/20 09:03:14;;;;;;;8.67;7.87;;;36.20;42.80;;;;;;4981648;28;20663;-66
2022/07/20 09:05:42;;;;;;;10.00;9.20;;;36.30;41.80;;;;;;4970783;28;20279;-66
2022/07/20 09:08:14;;;;;;;9.53;8.70;;;36.50;41.50;;;;;;4975953;28;20547;-66
2022/07/20 09:10:43;;;;;;;9.80;9.00;;;36.70;41.40;;;;;;4983773;28;20515;-67
2022/07/20 09:13:14;;;;;;;8.73;8.03;;;37.10;41.10;;;;;;4975863;28;20434;-66
2022/07/20 09:15:41;;;;;;;8.93;8.13;;;37.50;40.00;;;;;;4979476;28;20955;-67
2022/07/20 09:18:22;;;;;;;9.20;8.50;;;37.90;40.10;;;;;;4975362;28;20852;-67
2022/07/20 09:20:53;;;;;;;10.10;9.13;;;38.30;39.30;;;;;;4975061;28;20510;-67
2022/07/20 09:23:33;;;;;;;10.30;9.50;;;38.40;38.30;;;;;;4974851;28;20416;-67
2022/07/20 09:26:06;;;;;;;9.37;8.43;;;38.00;37.90;;;;;;4989221;28;20469;-67
2022/07/20 09:28:37;;;;;;;9.43;8.73;;;37.70;38.40;;;;;;4980893;28;20436;-67
2022/07/20 09:31:09;;;;;;;9.80;8.90;;;37.70;38.20;;;;;;4975500;28;20423;-67
2022/07/20 09:33:34;;;;;;;9.87;9.07;;;37.70;38.20;;;;;;4979980;28;20427;-66
2022/07/20 09:36:05;;;;;;;8.77;8.07;;;38.00;37.90;;;;;;4971749;28;21006;-66
2022/07/20 09:38:33;;;;;;;9.20;8.40;;;38.30;37.10;;;;;;4981982;28;20199;-67
2022/07/20 09:40:59;;;;;;;9.30;8.70;;;38.70;37.10;;;;;;4975671;28;20853;-66
2022/07/20 09:43:26;;;;;;;9.17;8.27;;;39.10;36.70;;;;;;4975234;28;20522;-64
2022/07/20 09:45:54;;;;;;;10.30;9.30;;;39.50;35.20;;;;;;4975990;28;20815;-66
2022/07/20 09:48:23;;;;;;;8.57;7.83;;;39.70;34.60;;;;;;4972967;28;20498;-66
2022/07/20 09:50:49;;;;;;;7.83;7.20;;;39.80;33.60;;;;;;4975364;28;20464;-65
2022/07/20 09:53:15;;;;;;;8.17;7.57;;;39.60;34.00;;;;;;4975158;28;20502;-66
2022/07/20 09:55:41;;;;;;;8.10;7.57;;;40.20;33.50;;;;;;4975064;28;20443;-65
2022/07/20 09:58:08;;;;;;;8.90;8.20;;;40.80;33.20;;;;;;4974870;28;20964;-66
2022/07/20 10:00:35;;;;;;;10.13;7.77;;;41.40;32.70;;;;;;4988257;28;20442;-66
2022/07/20 10:03:03;;;;;;;8.80;7.20;;;41.60;31.80;;;;;;4991679;28;20423;-66
2022/07/20 10:05:36;;;;;;;8.43;7.63;;;41.80;31.40;;;;;;4993802;28;20439;-66
2022/07/20 10:08:06;;;;;;;12.37;7.20;;;42.40;31.40;;;;;;4994405;28;20457;-66
2022/07/20 10:10:32;;;;;;;8.30;7.60;;;42.60;30.60;;;;;;4993716;28;20553;-65
2022/07/20 10:12:59;;;;;;;8.20;7.50;;;42.90;30.60;;;;;;4992606;28;20427;-66
2022/07/20 10:15:35;;;;;;;7.50;6.90;;;43.40;30.00;;;;;;4994474;28;20809;-66
2022/07/20 10:18:02;;;;;;;7.53;7.03;;;43.60;29.30;;;;;;4994310;28;20450;-66
2022/07/20 10:20:33;;;;;;;7.83;7.13;;;43.10;29.30;;;;;;4993723;28;20423;-66
2022/07/20 10:23:23;;;;;;;7.17;6.57;;;43.40;29.70;;;;;;4994680;28;20936;-66
2022/07/20 10:25:49;;;;;;;7.83;7.10;;;44.30;29.30;;;;;;4994151;28;20458;-66
2022/07/20 10:28:27;;;;;;;8.17;7.53;;;44.70;28.60;;;;;;4993528;28;20419;-66
2022/07/20 10:30:57;;;;;;;8.03;7.40;;;44.30;28.80;;;;;;4993723;28;20233;-66
2022/07/20 10:33:24;;;;;;;7.23;6.70;;;44.50;28.70;;;;;;4993820;28;20407;-66
2022/07/20 10:35:51;;;;;;;7.77;7.27;;;44.80;28.40;;;;;;4993784;28;20927;-66
2022/07/20 10:38:20;;;;;;;7.47;6.87;;;44.90;27.90;;;;;;4993098;28;20426;-66
2022/07/20 10:44:22;;;;;;;9.43;8.67;;;45.90;27.30;;;;;;4993988;28;20521;-66
2022/07/20 10:46:49;;;;;;;8.40;7.70;;;46.00;27.30;;;;;;4993458;28;20956;-65
2022/07/20 10:49:15;;;;;;;8.23;7.50;;;46.30;26.90;;;;;;4992593;28;20458;-66
2022/07/20 10:51:41;;;;;;;8.30;7.60;;;46.60;26.90;;;;;;4993592;28;20426;-66
2022/07/20 10:54:31;;;;;;;8.60;7.90;;;46.60;27.00;;;;;;4993559;28;20182;-66
2022/07/20 10:57:01;;;;;;;8.17;7.57;;;46.90;26.90;;;;;;4993314;28;20214;-63
2022/07/20 10:59:27;;;;;;;10.30;7.80;;;47.80;26.70;;;;;;4992563;28;20426;-64
2022/07/20 11:01:54;;;;;;;10.33;9.30;;;47.70;26.60;;;;;;4993229;28;20794;-64
2022/07/20 11:04:22;;;;;;;7.47;6.93;;;47.70;26.30;;;;;;4993374;28;20419;-63
2022/07/20 11:06:49;;;;;;;8.03;7.53;;;47.80;26.20;;;;;;4993224;28;20454;-63
2022/07/20 11:09:15;;;;;;;8.10;7.50;;;47.80;26.20;;;;;;4992375;28;21017;-66
2022/07/20 11:11:42;;;;;;;16.77;15.47;;;47.70;26.20;;;;;;4992602;28;20415;-65
2022/07/20 11:14:10;;;;;;;9.03;8.23;;;47.30;26.10;;;;;;4992531;28;20179;-66
2022/07/20 11:16:39;;;;;;;9.03;8.33;;;47.20;26.10;;;;;;4993078;28;20450;-66
2022/07/20 11:19:06;;;;;;;8.43;7.40;;;47.70;25.60;;;;;;4992384;28;20983;-66
2022/07/20 11:21:40;;;;;;;9.03;8.23;;;47.90;25.70;;;;;;4993116;28;20524;-66
2022/07/20 11:24:22;;;;;;;8.53;7.67;;;48.00;25.60;;;;;;4993031;28;20469;-67
2022/07/20 11:26:48;;;;;;;9.07;8.17;;;48.50;25.60;;;;;;4992949;28;20980;-66
2022/07/20 11:29:14;;;;;;;9.20;8.30;;;49.10;25.10;;;;;;4992084;28;20462;-66
2022/07/20 11:31:39;;;;;;;13.80;7.80;;;49.40;25.00;;;;;;4992885;28;20198;-66
2022/07/20 11:34:05;;;;;;;9.47;8.37;;;49.20;24.90;;;;;;4992897;28;20626;-66
2022/07/20 11:36:36;;;;;;;9.17;8.57;;;49.40;24.30;;;;;;4992678;28;20193;-66
2022/07/20 11:39:10;;;;;;;9.60;8.77;;;49.70;24.70;;;;;;4992101;28;20175;-66
2022/07/20 11:41:37;;;;;;;8.13;7.50;;;50.30;24.40;;;;;;4992871;28;20415;-66
2022/07/20 11:44:06;;;;;;;8.83;8.20;;;49.30;24.80;;;;;;4992886;28;20480;-65
2022/07/20 11:46:40;;;;;;;10.00;8.67;;;49.20;24.90;;;;;;4992847;28;20443;-65
2022/07/20 11:49:08;;;;;;;8.70;7.80;;;49.30;25.00;;;;;;4990749;28;20473;-67
2022/07/20 11:51:38;;;;;;;9.10;8.60;;;49.50;25.10;;;;;;4992800;28;20425;-66
2022/07/20 11:54:07;;;;;;;9.87;8.93;;;49.70;25.00;;;;;;4992824;28;20421;-66
2022/07/20 11:56:34;;;;;;;8.63;7.93;;;50.20;24.60;;;;;;4992686;28;20445;-66
2022/07/20 11:59:01;;;;;;;9.07;8.50;;;51.00;24.40;;;;;;4991997;28;20419;-66
2022/07/20 12:01:35;;;;;;;9.10;8.33;;;51.00;24.20;;;;;;4992629;28;20429;-64
2022/07/20 12:04:06;;;;;;;9.40;8.90;;;50.80;24.10;;;;;;4992448;28;20545;-64
2022/07/20 12:06:34;;;;;;;9.97;9.37;;;51.00;24.10;;;;;;4992339;28;20795;-64
2022/07/20 12:09:01;;;;;;;9.17;8.47;;;51.30;24.00;;;;;;4991477;28;20465;-63
2022/07/20 12:11:26;;;;;;;9.67;8.80;;;52.40;23.70;;;;;;4992283;28;20418;-63
2022/07/20 12:13:52;;;;;;;10.27;9.50;;;52.30;23.70;;;;;;4992336;28;20430;-64
2022/07/20 12:16:18;;;;;;;9.70;8.80;;;51.80;23.50;;;;;;4992232;28;20192;-64
2022/07/20 12:18:52;;;;;;;10.63;9.60;;;51.40;24.00;;;;;;4991601;28;20176;-63
2022/07/20 12:21:24;;;;;;;9.33;8.73;;;51.40;24.50;;;;;;4992294;28;20518;-64
2022/07/20 12:23:52;;;;;;;11.23;8.70;;;50.80;24.10;;;;;;4992334;28;20411;-63
2022/07/20 12:26:35;;;;;;;10.57;9.77;;;51.10;24.00;;;;;;4994593;28;20816;-64
2022/07/20 12:29:20;;;;;;;9.03;8.43;;;52.00;24.10;;;;;;4995437;28;20500;-64
2022/07/20 12:31:57;;;;;;;9.80;9.27;;;52.10;24.00;;;;;;4996168;28;20420;-64
2022/07/20 12:34:23;;;;;;;10.90;10.00;;;52.60;23.80;;;;;;4996125;28;20417;-63
2022/07/20 12:36:49;;;;;;;9.87;8.90;;;51.70;24.20;;;;;;4996022;28;20444;-64
2022/07/20 12:39:34;;;;;;;11.60;10.60;;;52.00;24.10;;;;;;4995335;28;20211;-63
2022/07/20 12:42:23;;;;;;;10.97;10.07;;;52.10;23.70;;;;;;4995996;28;20472;-64
2022/07/20 12:45:00;;;;;;;12.27;11.30;;;52.40;23.80;;;;;;4995983;28;20417;-63
2022/07/20 12:47:26;;;;;;;11.37;10.37;;;51.20;24.00;;;;;;4995996;28;20421;-63